sensor_id;sensor_type;location;lat;lon;timestamp;P1;durP1;ratioP1;P2;durP2;ratioP2
46463;SDS011;32161;48.148;-1.554;2023-02-14T00:00:50;34.20;;;22.65;;
46463;SDS011;32161;48.148;-1.554;2023-02-14T00:03:17;35.88;;;24.35;;
46463;SDS011;32161;48.148;-1.554;2023-02-14T00:05:45;42.30;;;25.80;;
46463;SDS011;32161;48.148;-1.554;2023-02-14T00:08:14;39.08;;;25.27;;
46463;SDS011;32161;48.148;-1.554;2023-02-14T00:10:42;38.65;;;23.67;;
46463;SDS011;32161;48.148;-1.554;2023-02-14T00:13:10;44.08;;;26.20;;
46463;SDS011;32161;48.148;-1.554;2023-02-14T00:15:37;40.35;;;25.08;;
46463;SDS011;32161;48.148;-1.554;2023-02-14T00:18:04;37.00;;;24.27;;
46463;SDS011;32161;48.148;-1.554;2023-02-14T00:20:31;42.40;;;25.30;;
46463;SDS011;32161;48.148;-1.554;2023-02-14T00:23:01;39.10;;;24.35;;
46463;SDS011;32161;48.148;-1.554;2023-02-14T00:25:31;34.53;;;24.13;;
46463;SDS011;32161;48.148;-1.554;2023-02-14T00:28:00;33.00;;;23.85;;
46463;SDS011;32161;48.148;-1.554;2023-02-14T00:30:27;32.40;;;22.40;;
46463;SDS011;32161;48.148;-1.554;2023-02-14T00:32:55;42.67;;;25.10;;
46463;SDS011;32161;48.148;-1.554;2023-02-14T00:35:22;33.97;;;22.95;;
46463;SDS011;32161;48.148;-1.554;2023-02-14T00:37:50;40.63;;;23.65;;
46463;SDS011;32161;48.148;-1.554;2023-02-14T00:40:18;38.67;;;23.77;;
46463;SDS011;32161;48.148;-1.554;2023-02-14T00:42:47;34.42;;;22.60;;
46463;SDS011;32161;48.148;-1.554;2023-02-14T00:45:14;33.00;;;22.38;;
46463;SDS011;32161;48.148;-1.554;2023-02-14T00:47:43;37.90;;;23.08;;
46463;SDS011;32161;48.148;-1.554;2023-02-14T00:50:10;31.27;;;21.63;;
46463;SDS011;32161;48.148;-1.554;2023-02-14T00:52:38;32.47;;;22.02;;
46463;SDS011;32161;48.148;-1.554;2023-02-14T00:55:06;37.42;;;23.10;;
46463;SDS011;32161;48.148;-1.554;2023-02-14T00:57:33;39.20;;;22.35;;
46463;SDS011;32161;48.148;-1.554;2023-02-14T01:00:03;35.38;;;22.35;;
46463;SDS011;32161;48.148;-1.554;2023-02-14T01:02:32;31.02;;;21.48;;
46463;SDS011;32161;48.148;-1.554;2023-02-14T01:05:00;34.75;;;21.67;;
46463;SDS011;32161;48.148;-1.554;2023-02-14T01:07:28;39.50;;;24.27;;
46463;SDS011;32161;48.148;-1.554;2023-02-14T01:09:55;40.00;;;24.15;;
46463;SDS011;32161;48.148;-1.554;2023-02-14T01:12:23;39.35;;;22.70;;
46463;SDS011;32161;48.148;-1.554;2023-02-14T01:14:51;38.85;;;23.35;;
46463;SDS011;32161;48.148;-1.554;2023-02-14T01:17:21;36.47;;;23.25;;
46463;SDS011;32161;48.148;-1.554;2023-02-14T01:19:50;39.47;;;23.85;;
46463;SDS011;32161;48.148;-1.554;2023-02-14T01:22:18;42.63;;;23.67;;
46463;SDS011;32161;48.148;-1.554;2023-02-14T01:24:45;37.33;;;22.95;;
46463;SDS011;32161;48.148;-1.554;2023-02-14T01:27:13;35.40;;;21.63;;
46463;SDS011;32161;48.148;-1.554;2023-02-14T01:29:41;38.25;;;22.65;;
46463;SDS011;32161;48.148;-1.554;2023-02-14T01:32:08;34.50;;;22.85;;
46463;SDS011;32161;48.148;-1.554;2023-02-14T01:34:37;36.40;;;21.70;;
46463;SDS011;32161;48.148;-1.554;2023-02-14T01:37:05;37.40;;;24.00;;
46463;SDS011;32161;48.148;-1.554;2023-02-14T01:39:32;40.45;;;24.10;;
46463;SDS011;32161;48.148;-1.554;2023-02-14T01:42:01;39.28;;;23.05;;
46463;SDS011;32161;48.148;-1.554;2023-02-14T01:47:26;37.80;;;22.52;;
46463;SDS011;32161;48.148;-1.554;2023-02-14T01:50:00;38.13;;;23.13;;
46463;SDS011;32161;48.148;-1.554;2023-02-14T01:52:33;35.25;;;22.77;;
46463;SDS011;32161;48.148;-1.554;2023-02-14T01:55:09;37.10;;;22.92;;
46463;SDS011;32161;48.148;-1.554;2023-02-14T01:57:42;34.55;;;22.33;;
46463;SDS011;32161;48.148;-1.554;2023-02-14T02:00:14;35.20;;;24.05;;
46463;SDS011;32161;48.148;-1.554;2023-02-14T02:03:00;37.97;;;22.45;;
46463;SDS011;32161;48.148;-1.554;2023-02-14T02:05:31;44.28;;;24.55;;
46463;SDS011;32161;48.148;-1.554;2023-02-14T02:08:01;36.58;;;23.33;;
46463;SDS011;32161;48.148;-1.554;2023-02-14T02:10:29;39.22;;;25.00;;
46463;SDS011;32161;48.148;-1.554;2023-02-14T02:12:58;36.80;;;23.17;;
46463;SDS011;32161;48.148;-1.554;2023-02-14T02:15:33;35.88;;;22.27;;
46463;SDS011;32161;48.148;-1.554;2023-02-14T02:18:14;36.70;;;22.52;;
46463;SDS011;32161;48.148;-1.554;2023-02-14T02:21:00;34.70;;;23.08;;
46463;SDS011;32161;48.148;-1.554;2023-02-14T02:24:19;38.50;;;22.38;;
46463;SDS011;32161;48.148;-1.554;2023-02-14T02:27:10;37.58;;;22.52;;
46463;SDS011;32161;48.148;-1.554;2023-02-14T02:37:07;39.22;;;22.30;;
46463;SDS011;32161;48.148;-1.554;2023-02-14T02:39:58;36.42;;;21.08;;
46463;SDS011;32161;48.148;-1.554;2023-02-14T02:42:40;33.22;;;21.58;;
46463;SDS011;32161;48.148;-1.554;2023-02-14T02:45:19;35.88;;;22.75;;
46463;SDS011;32161;48.148;-1.554;2023-02-14T02:47:56;41.97;;;23.95;;
46463;SDS011;32161;48.148;-1.554;2023-02-14T02:50:31;39.63;;;22.38;;
46463;SDS011;32161;48.148;-1.554;2023-02-14T02:53:32;40.33;;;22.77;;
46463;SDS011;32161;48.148;-1.554;2023-02-14T02:56:07;36.58;;;23.30;;
46463;SDS011;32161;48.148;-1.554;2023-02-14T02:59:13;36.08;;;22.77;;
46463;SDS011;32161;48.148;-1.554;2023-02-14T03:01:48;37.80;;;21.92;;
46463;SDS011;32161;48.148;-1.554;2023-02-14T03:04:21;38.10;;;21.90;;
46463;SDS011;32161;48.148;-1.554;2023-02-14T03:07:07;36.85;;;21.83;;
46463;SDS011;32161;48.148;-1.554;2023-02-14T03:09:50;36.67;;;21.38;;
46463;SDS011;32161;48.148;-1.554;2023-02-14T03:12:28;31.02;;;20.83;;
46463;SDS011;32161;48.148;-1.554;2023-02-14T03:15:26;29.98;;;20.10;;
46463;SDS011;32161;48.148;-1.554;2023-02-14T03:18:07;34.70;;;22.10;;
46463;SDS011;32161;48.148;-1.554;2023-02-14T03:20:45;31.33;;;21.05;;
46463;SDS011;32161;48.148;-1.554;2023-02-14T03:23:19;31.10;;;20.48;;
46463;SDS011;32161;48.148;-1.554;2023-02-14T03:25:57;35.13;;;21.83;;
46463;SDS011;32161;48.148;-1.554;2023-02-14T03:28:38;36.75;;;22.42;;
46463;SDS011;32161;48.148;-1.554;2023-02-14T03:31:15;30.77;;;21.55;;
46463;SDS011;32161;48.148;-1.554;2023-02-14T03:33:49;34.40;;;21.10;;
46463;SDS011;32161;48.148;-1.554;2023-02-14T03:36:26;34.72;;;22.27;;
46463;SDS011;32161;48.148;-1.554;2023-02-14T03:39:02;33.58;;;21.02;;
46463;SDS011;32161;48.148;-1.554;2023-02-14T03:41:38;31.40;;;20.23;;
46463;SDS011;32161;48.148;-1.554;2023-02-14T03:44:11;31.58;;;20.00;;
46463;SDS011;32161;48.148;-1.554;2023-02-14T03:46:47;35.20;;;21.33;;
46463;SDS011;32161;48.148;-1.554;2023-02-14T03:49:20;35.25;;;21.80;;
46463;SDS011;32161;48.148;-1.554;2023-02-14T03:51:52;35.67;;;20.80;;
46463;SDS011;32161;48.148;-1.554;2023-02-14T03:54:24;33.35;;;21.20;;
46463;SDS011;32161;48.148;-1.554;2023-02-14T03:56:56;35.67;;;21.85;;
46463;SDS011;32161;48.148;-1.554;2023-02-14T03:59:30;37.63;;;21.67;;
46463;SDS011;32161;48.148;-1.554;2023-02-14T04:01:58;37.22;;;22.50;;
46463;SDS011;32161;48.148;-1.554;2023-02-14T04:04:32;41.63;;;23.42;;
46463;SDS011;32161;48.148;-1.554;2023-02-14T04:07:07;38.58;;;23.95;;
46463;SDS011;32161;48.148;-1.554;2023-02-14T04:09:37;34.55;;;22.33;;
46463;SDS011;32161;48.148;-1.554;2023-02-14T04:12:06;34.47;;;22.70;;
46463;SDS011;32161;48.148;-1.554;2023-02-14T04:14:34;38.78;;;22.20;;
46463;SDS011;32161;48.148;-1.554;2023-02-14T04:17:02;35.67;;;21.67;;
46463;SDS011;32161;48.148;-1.554;2023-02-14T04:19:47;39.60;;;23.05;;
46463;SDS011;32161;48.148;-1.554;2023-02-14T04:22:15;37.40;;;22.73;;
46463;SDS011;32161;48.148;-1.554;2023-02-14T04:24:43;40.83;;;23.95;;
46463;SDS011;32161;48.148;-1.554;2023-02-14T04:27:12;36.67;;;22.08;;
46463;SDS011;32161;48.148;-1.554;2023-02-14T04:29:40;37.67;;;22.40;;
46463;SDS011;32161;48.148;-1.554;2023-02-14T04:32:11;32.67;;;19.07;;
46463;SDS011;32161;48.148;-1.554;2023-02-14T04:34:41;34.92;;;20.40;;
46463;SDS011;32161;48.148;-1.554;2023-02-14T04:37:09;31.27;;;21.50;;
46463;SDS011;32161;48.148;-1.554;2023-02-14T04:39:37;34.33;;;21.13;;
46463;SDS011;32161;48.148;-1.554;2023-02-14T04:42:05;34.70;;;20.70;;
46463;SDS011;32161;48.148;-1.554;2023-02-14T04:44:34;33.58;;;21.35;;
46463;SDS011;32161;48.148;-1.554;2023-02-14T04:47:02;30.85;;;20.75;;
46463;SDS011;32161;48.148;-1.554;2023-02-14T04:49:30;35.42;;;21.65;;
46463;SDS011;32161;48.148;-1.554;2023-02-14T04:51:58;39.20;;;21.63;;
46463;SDS011;32161;48.148;-1.554;2023-02-14T04:54:26;37.45;;;20.58;;
46463;SDS011;32161;48.148;-1.554;2023-02-14T04:56:54;29.00;;;19.40;;
46463;SDS011;32161;48.148;-1.554;2023-02-14T04:59:21;31.80;;;20.63;;
46463;SDS011;32161;48.148;-1.554;2023-02-14T05:01:51;30.02;;;19.88;;
46463;SDS011;32161;48.148;-1.554;2023-02-14T05:04:18;30.58;;;19.67;;
46463;SDS011;32161;48.148;-1.554;2023-02-14T05:06:46;30.65;;;19.70;;
46463;SDS011;32161;48.148;-1.554;2023-02-14T05:09:14;33.88;;;20.90;;
46463;SDS011;32161;48.148;-1.554;2023-02-14T05:11:42;32.75;;;20.50;;
46463;SDS011;32161;48.148;-1.554;2023-02-14T05:14:09;36.92;;;21.95;;
46463;SDS011;32161;48.148;-1.554;2023-02-14T05:16:38;35.17;;;21.20;;
46463;SDS011;32161;48.148;-1.554;2023-02-14T05:19:07;38.67;;;21.83;;
46463;SDS011;32161;48.148;-1.554;2023-02-14T05:21:34;31.23;;;20.88;;
46463;SDS011;32161;48.148;-1.554;2023-02-14T05:24:02;33.80;;;21.52;;
46463;SDS011;32161;48.148;-1.554;2023-02-14T05:26:31;30.88;;;19.70;;
46463;SDS011;32161;48.148;-1.554;2023-02-14T05:28:58;38.50;;;21.48;;
46463;SDS011;32161;48.148;-1.554;2023-02-14T05:31:26;32.20;;;20.60;;
46463;SDS011;32161;48.148;-1.554;2023-02-14T05:33:54;38.60;;;21.85;;
46463;SDS011;32161;48.148;-1.554;2023-02-14T05:36:23;36.10;;;22.98;;
46463;SDS011;32161;48.148;-1.554;2023-02-14T05:38:50;34.60;;;21.00;;
46463;SDS011;32161;48.148;-1.554;2023-02-14T05:41:18;33.33;;;20.40;;
46463;SDS011;32161;48.148;-1.554;2023-02-14T05:43:45;36.58;;;22.33;;
46463;SDS011;32161;48.148;-1.554;2023-02-14T05:46:13;34.53;;;22.02;;
46463;SDS011;32161;48.148;-1.554;2023-02-14T05:48:41;34.67;;;21.85;;
46463;SDS011;32161;48.148;-1.554;2023-02-14T05:51:09;36.83;;;20.83;;
46463;SDS011;32161;48.148;-1.554;2023-02-14T05:53:38;34.47;;;21.48;;
46463;SDS011;32161;48.148;-1.554;2023-02-14T05:56:06;32.30;;;19.80;;
46463;SDS011;32161;48.148;-1.554;2023-02-14T05:58:33;36.65;;;21.52;;
46463;SDS011;32161;48.148;-1.554;2023-02-14T06:01:02;33.35;;;21.65;;
46463;SDS011;32161;48.148;-1.554;2023-02-14T06:03:30;33.25;;;21.02;;
46463;SDS011;32161;48.148;-1.554;2023-02-14T06:05:58;32.10;;;20.38;;
46463;SDS011;32161;48.148;-1.554;2023-02-14T06:08:25;32.03;;;20.10;;
46463;SDS011;32161;48.148;-1.554;2023-02-14T06:10:54;32.55;;;19.33;;
46463;SDS011;32161;48.148;-1.554;2023-02-14T06:13:22;38.03;;;21.75;;
46463;SDS011;32161;48.148;-1.554;2023-02-14T06:15:49;34.13;;;20.73;;
46463;SDS011;32161;48.148;-1.554;2023-02-14T06:18:17;35.40;;;21.73;;
46463;SDS011;32161;48.148;-1.554;2023-02-14T06:20:45;32.13;;;20.38;;
46463;SDS011;32161;48.148;-1.554;2023-02-14T06:23:12;31.92;;;18.95;;
46463;SDS011;32161;48.148;-1.554;2023-02-14T06:25:40;30.73;;;20.15;;
46463;SDS011;32161;48.148;-1.554;2023-02-14T06:28:09;35.22;;;19.88;;
46463;SDS011;32161;48.148;-1.554;2023-02-14T06:30:36;32.65;;;18.48;;
46463;SDS011;32161;48.148;-1.554;2023-02-14T06:33:04;33.58;;;19.35;;
46463;SDS011;32161;48.148;-1.554;2023-02-14T06:35:31;30.60;;;18.73;;
46463;SDS011;32161;48.148;-1.554;2023-02-14T06:37:59;28.05;;;17.63;;
46463;SDS011;32161;48.148;-1.554;2023-02-14T06:40:27;30.92;;;18.85;;
46463;SDS011;32161;48.148;-1.554;2023-02-14T06:42:54;28.98;;;18.15;;
46463;SDS011;32161;48.148;-1.554;2023-02-14T06:45:23;28.80;;;17.50;;
46463;SDS011;32161;48.148;-1.554;2023-02-14T06:47:51;28.10;;;18.25;;
46463;SDS011;32161;48.148;-1.554;2023-02-14T06:50:19;31.80;;;20.42;;
46463;SDS011;32161;48.148;-1.554;2023-02-14T06:52:47;37.72;;;21.88;;
46463;SDS011;32161;48.148;-1.554;2023-02-14T06:55:15;34.03;;;20.42;;
46463;SDS011;32161;48.148;-1.554;2023-02-14T06:57:43;33.83;;;20.42;;
46463;SDS011;32161;48.148;-1.554;2023-02-14T07:00:11;35.10;;;19.83;;
46463;SDS011;32161;48.148;-1.554;2023-02-14T07:02:41;32.80;;;20.88;;
46463;SDS011;32161;48.148;-1.554;2023-02-14T07:05:08;29.25;;;18.85;;
46463;SDS011;32161;48.148;-1.554;2023-02-14T07:07:36;29.30;;;18.80;;
46463;SDS011;32161;48.148;-1.554;2023-02-14T07:10:04;31.33;;;18.63;;
46463;SDS011;32161;48.148;-1.554;2023-02-14T07:12:33;32.35;;;19.15;;
46463;SDS011;32161;48.148;-1.554;2023-02-14T07:15:03;36.05;;;20.48;;
46463;SDS011;32161;48.148;-1.554;2023-02-14T07:17:31;30.92;;;20.00;;
46463;SDS011;32161;48.148;-1.554;2023-02-14T07:20:01;30.95;;;18.83;;
46463;SDS011;32161;48.148;-1.554;2023-02-14T07:22:30;34.83;;;19.70;;
46463;SDS011;32161;48.148;-1.554;2023-02-14T07:24:58;33.97;;;19.30;;
46463;SDS011;32161;48.148;-1.554;2023-02-14T07:27:26;30.70;;;19.23;;
46463;SDS011;32161;48.148;-1.554;2023-02-14T07:29:54;32.78;;;19.17;;
46463;SDS011;32161;48.148;-1.554;2023-02-14T07:32:21;31.75;;;19.27;;
46463;SDS011;32161;48.148;-1.554;2023-02-14T07:34:49;31.98;;;20.00;;
46463;SDS011;32161;48.148;-1.554;2023-02-14T07:37:18;33.85;;;20.50;;
46463;SDS011;32161;48.148;-1.554;2023-02-14T07:39:46;32.88;;;19.30;;
46463;SDS011;32161;48.148;-1.554;2023-02-14T07:42:13;33.53;;;20.25;;
46463;SDS011;32161;48.148;-1.554;2023-02-14T07:44:41;36.72;;;19.77;;
46463;SDS011;32161;48.148;-1.554;2023-02-14T07:47:10;33.88;;;21.15;;
46463;SDS011;32161;48.148;-1.554;2023-02-14T07:49:41;39.58;;;19.55;;
46463;SDS011;32161;48.148;-1.554;2023-02-14T07:52:09;45.08;;;21.73;;
46463;SDS011;32161;48.148;-1.554;2023-02-14T07:54:38;31.95;;;20.55;;
46463;SDS011;32161;48.148;-1.554;2023-02-14T07:57:05;39.65;;;21.67;;
46463;SDS011;32161;48.148;-1.554;2023-02-14T07:59:33;40.97;;;22.70;;
46463;SDS011;32161;48.148;-1.554;2023-02-14T08:02:00;39.83;;;23.20;;
46463;SDS011;32161;48.148;-1.554;2023-02-14T08:04:28;37.28;;;22.35;;
46463;SDS011;32161;48.148;-1.554;2023-02-14T08:06:56;41.83;;;23.02;;
46463;SDS011;32161;48.148;-1.554;2023-02-14T08:09:23;43.95;;;26.08;;
46463;SDS011;32161;48.148;-1.554;2023-02-14T08:11:53;42.22;;;24.65;;
46463;SDS011;32161;48.148;-1.554;2023-02-14T08:14:40;40.72;;;24.40;;
46463;SDS011;32161;48.148;-1.554;2023-02-14T08:17:08;40.53;;;23.70;;
46463;SDS011;32161;48.148;-1.554;2023-02-14T08:19:37;41.00;;;24.30;;
46463;SDS011;32161;48.148;-1.554;2023-02-14T08:22:06;42.13;;;24.08;;
46463;SDS011;32161;48.148;-1.554;2023-02-14T08:24:34;42.20;;;23.73;;
46463;SDS011;32161;48.148;-1.554;2023-02-14T08:27:03;38.92;;;24.73;;
46463;SDS011;32161;48.148;-1.554;2023-02-14T08:29:30;44.17;;;24.40;;
46463;SDS011;32161;48.148;-1.554;2023-02-14T08:31:58;43.72;;;24.70;;
46463;SDS011;32161;48.148;-1.554;2023-02-14T08:34:26;50.92;;;27.13;;
46463;SDS011;32161;48.148;-1.554;2023-02-14T08:36:53;45.10;;;25.20;;
46463;SDS011;32161;48.148;-1.554;2023-02-14T08:39:21;50.30;;;24.80;;
46463;SDS011;32161;48.148;-1.554;2023-02-14T08:41:49;45.22;;;25.27;;
46463;SDS011;32161;48.148;-1.554;2023-02-14T08:44:18;47.88;;;25.63;;
46463;SDS011;32161;48.148;-1.554;2023-02-14T08:46:45;45.63;;;25.65;;
46463;SDS011;32161;48.148;-1.554;2023-02-14T08:49:13;45.97;;;24.48;;
46463;SDS011;32161;48.148;-1.554;2023-02-14T08:51:41;42.35;;;24.83;;
46463;SDS011;32161;48.148;-1.554;2023-02-14T08:54:08;45.42;;;23.90;;
46463;SDS011;32161;48.148;-1.554;2023-02-14T08:56:36;48.00;;;26.77;;
46463;SDS011;32161;48.148;-1.554;2023-02-14T08:59:04;44.65;;;25.20;;
46463;SDS011;32161;48.148;-1.554;2023-02-14T09:01:33;45.97;;;26.67;;
46463;SDS011;32161;48.148;-1.554;2023-02-14T09:04:01;47.30;;;26.20;;
46463;SDS011;32161;48.148;-1.554;2023-02-14T09:06:29;47.65;;;26.25;;
46463;SDS011;32161;48.148;-1.554;2023-02-14T09:08:57;43.28;;;25.80;;
46463;SDS011;32161;48.148;-1.554;2023-02-14T09:11:24;47.05;;;24.48;;
46463;SDS011;32161;48.148;-1.554;2023-02-14T09:13:52;55.17;;;25.42;;
46463;SDS011;32161;48.148;-1.554;2023-02-14T09:16:20;45.03;;;25.55;;
46463;SDS011;32161;48.148;-1.554;2023-02-14T09:18:51;47.85;;;24.30;;
46463;SDS011;32161;48.148;-1.554;2023-02-14T09:23:50;46.75;;;23.27;;
46463;SDS011;32161;48.148;-1.554;2023-02-14T09:26:18;45.65;;;25.10;;
46463;SDS011;32161;48.148;-1.554;2023-02-14T09:28:46;50.60;;;24.63;;
46463;SDS011;32161;48.148;-1.554;2023-02-14T09:31:15;47.60;;;24.73;;
46463;SDS011;32161;48.148;-1.554;2023-02-14T09:33:45;46.83;;;25.83;;
46463;SDS011;32161;48.148;-1.554;2023-02-14T09:36:15;43.60;;;25.10;;
46463;SDS011;32161;48.148;-1.554;2023-02-14T09:38:43;48.80;;;26.80;;
46463;SDS011;32161;48.148;-1.554;2023-02-14T09:41:16;41.70;;;24.15;;
46463;SDS011;32161;48.148;-1.554;2023-02-14T09:44:10;42.75;;;24.25;;
46463;SDS011;32161;48.148;-1.554;2023-02-14T09:46:51;44.70;;;25.88;;
46463;SDS011;32161;48.148;-1.554;2023-02-14T09:49:27;46.80;;;23.92;;
46463;SDS011;32161;48.148;-1.554;2023-02-14T09:52:01;45.38;;;25.88;;
46463;SDS011;32161;48.148;-1.554;2023-02-14T09:54:32;47.17;;;26.25;;
46463;SDS011;32161;48.148;-1.554;2023-02-14T09:57:02;40.58;;;24.38;;
46463;SDS011;32161;48.148;-1.554;2023-02-14T09:59:41;46.03;;;25.65;;
46463;SDS011;32161;48.148;-1.554;2023-02-14T10:02:22;47.75;;;24.85;;
46463;SDS011;32161;48.148;-1.554;2023-02-14T10:05:05;50.33;;;24.83;;
46463;SDS011;32161;48.148;-1.554;2023-02-14T10:07:46;46.33;;;25.10;;
46463;SDS011;32161;48.148;-1.554;2023-02-14T10:10:24;37.90;;;23.30;;
46463;SDS011;32161;48.148;-1.554;2023-02-14T10:12:58;43.08;;;24.17;;
46463;SDS011;32161;48.148;-1.554;2023-02-14T10:15:37;40.22;;;23.70;;
46463;SDS011;32161;48.148;-1.554;2023-02-14T10:18:09;40.38;;;23.23;;
46463;SDS011;32161;48.148;-1.554;2023-02-14T10:20:43;44.30;;;23.67;;
46463;SDS011;32161;48.148;-1.554;2023-02-14T10:26:06;37.55;;;23.40;;
46463;SDS011;32161;48.148;-1.554;2023-02-14T10:28:39;43.67;;;24.13;;
46463;SDS011;32161;48.148;-1.554;2023-02-14T10:31:14;40.83;;;23.10;;
46463;SDS011;32161;48.148;-1.554;2023-02-14T10:33:52;41.08;;;23.30;;
46463;SDS011;32161;48.148;-1.554;2023-02-14T10:36:29;45.05;;;24.73;;
46463;SDS011;32161;48.148;-1.554;2023-02-14T10:39:28;44.60;;;23.02;;
46463;SDS011;32161;48.148;-1.554;2023-02-14T10:42:24;35.88;;;22.48;;
46463;SDS011;32161;48.148;-1.554;2023-02-14T10:45:04;37.40;;;23.17;;
46463;SDS011;32161;48.148;-1.554;2023-02-14T10:47:44;37.45;;;22.35;;
46463;SDS011;32161;48.148;-1.554;2023-02-14T10:50:24;37.93;;;23.33;;
46463;SDS011;32161;48.148;-1.554;2023-02-14T10:53:03;37.17;;;22.88;;
46463;SDS011;32161;48.148;-1.554;2023-02-14T10:55:45;34.80;;;21.55;;
46463;SDS011;32161;48.148;-1.554;2023-02-14T10:58:19;34.65;;;21.33;;
46463;SDS011;32161;48.148;-1.554;2023-02-14T11:00:51;44.60;;;25.42;;
46463;SDS011;32161;48.148;-1.554;2023-02-14T11:03:25;48.90;;;26.83;;
46463;SDS011;32161;48.148;-1.554;2023-02-14T11:05:54;54.85;;;28.25;;
46463;SDS011;32161;48.148;-1.554;2023-02-14T11:08:23;43.50;;;24.85;;
46463;SDS011;32161;48.148;-1.554;2023-02-14T11:11:00;31.17;;;19.63;;
46463;SDS011;32161;48.148;-1.554;2023-02-14T11:13:37;37.17;;;21.77;;
46463;SDS011;32161;48.148;-1.554;2023-02-14T11:16:06;34.67;;;18.88;;
46463;SDS011;32161;48.148;-1.554;2023-02-14T11:18:37;29.75;;;18.10;;
46463;SDS011;32161;48.148;-1.554;2023-02-14T11:21:07;30.15;;;18.75;;
46463;SDS011;32161;48.148;-1.554;2023-02-14T11:23:38;30.10;;;18.10;;
46463;SDS011;32161;48.148;-1.554;2023-02-14T11:26:10;30.88;;;19.00;;
46463;SDS011;32161;48.148;-1.554;2023-02-14T11:28:48;32.20;;;18.25;;
46463;SDS011;32161;48.148;-1.554;2023-02-14T11:31:24;33.35;;;19.73;;
46463;SDS011;32161;48.148;-1.554;2023-02-14T11:33:55;31.23;;;19.80;;
46463;SDS011;32161;48.148;-1.554;2023-02-14T11:36:23;32.53;;;18.52;;
46463;SDS011;32161;48.148;-1.554;2023-02-14T11:38:57;28.88;;;17.35;;
46463;SDS011;32161;48.148;-1.554;2023-02-14T11:41:47;33.90;;;19.08;;
46463;SDS011;32161;48.148;-1.554;2023-02-14T11:44:17;30.73;;;17.58;;
46463;SDS011;32161;48.148;-1.554;2023-02-14T11:49:26;27.63;;;16.48;;
46463;SDS011;32161;48.148;-1.554;2023-02-14T11:51:56;24.55;;;15.82;;
46463;SDS011;32161;48.148;-1.554;2023-02-14T11:54:28;27.20;;;16.08;;
46463;SDS011;32161;48.148;-1.554;2023-02-14T11:57:03;29.70;;;17.05;;
46463;SDS011;32161;48.148;-1.554;2023-02-14T11:59:36;28.23;;;16.35;;
46463;SDS011;32161;48.148;-1.554;2023-02-14T12:02:17;29.15;;;16.77;;
46463;SDS011;32161;48.148;-1.554;2023-02-14T12:04:54;25.02;;;16.42;;
46463;SDS011;32161;48.148;-1.554;2023-02-14T12:07:26;29.13;;;17.73;;
46463;SDS011;32161;48.148;-1.554;2023-02-14T12:10:07;25.35;;;15.32;;
46463;SDS011;32161;48.148;-1.554;2023-02-14T12:12:57;23.30;;;14.57;;
46463;SDS011;32161;48.148;-1.554;2023-02-14T12:15:31;27.98;;;16.83;;
46463;SDS011;32161;48.148;-1.554;2023-02-14T12:18:11;22.90;;;15.23;;
46463;SDS011;32161;48.148;-1.554;2023-02-14T12:20:54;24.77;;;15.65;;
46463;SDS011;32161;48.148;-1.554;2023-02-14T12:23:29;22.08;;;14.10;;
46463;SDS011;32161;48.148;-1.554;2023-02-14T12:26:09;25.10;;;15.55;;
46463;SDS011;32161;48.148;-1.554;2023-02-14T12:28:50;25.83;;;15.80;;
46463;SDS011;32161;48.148;-1.554;2023-02-14T12:31:25;26.45;;;15.75;;
46463;SDS011;32161;48.148;-1.554;2023-02-14T12:33:53;28.00;;;17.45;;
46463;SDS011;32161;48.148;-1.554;2023-02-14T12:36:25;32.03;;;17.63;;
46463;SDS011;32161;48.148;-1.554;2023-02-14T12:39:08;31.70;;;17.00;;
46463;SDS011;32161;48.148;-1.554;2023-02-14T12:41:43;29.65;;;18.40;;
46463;SDS011;32161;48.148;-1.554;2023-02-14T12:44:27;27.27;;;17.38;;
46463;SDS011;32161;48.148;-1.554;2023-02-14T12:47:16;26.52;;;17.95;;
46463;SDS011;32161;48.148;-1.554;2023-02-14T12:49:51;27.45;;;17.25;;
46463;SDS011;32161;48.148;-1.554;2023-02-14T12:52:52;28.38;;;16.58;;
46463;SDS011;32161;48.148;-1.554;2023-02-14T12:55:48;28.23;;;16.95;;
46463;SDS011;32161;48.148;-1.554;2023-02-14T12:58:33;25.63;;;17.58;;
46463;SDS011;32161;48.148;-1.554;2023-02-14T13:01:18;31.20;;;17.88;;
46463;SDS011;32161;48.148;-1.554;2023-02-14T13:04:21;28.58;;;17.90;;
46463;SDS011;32161;48.148;-1.554;2023-02-14T13:07:12;34.10;;;17.60;;
46463;SDS011;32161;48.148;-1.554;2023-02-14T13:10:03;23.55;;;15.63;;
46463;SDS011;32161;48.148;-1.554;2023-02-14T13:12:42;24.05;;;17.00;;
46463;SDS011;32161;48.148;-1.554;2023-02-14T13:15:22;24.45;;;16.58;;
46463;SDS011;32161;48.148;-1.554;2023-02-14T13:18:02;29.25;;;17.20;;
46463;SDS011;32161;48.148;-1.554;2023-02-14T13:20:41;25.90;;;16.77;;
46463;SDS011;32161;48.148;-1.554;2023-02-14T13:23:17;27.33;;;17.83;;
46463;SDS011;32161;48.148;-1.554;2023-02-14T13:25:52;26.38;;;17.58;;
46463;SDS011;32161;48.148;-1.554;2023-02-14T13:28:26;26.58;;;17.35;;
46463;SDS011;32161;48.148;-1.554;2023-02-14T13:30:56;26.23;;;17.80;;
46463;SDS011;32161;48.148;-1.554;2023-02-14T13:33:29;26.58;;;17.33;;
46463;SDS011;32161;48.148;-1.554;2023-02-14T13:36:01;28.73;;;17.55;;
46463;SDS011;32161;48.148;-1.554;2023-02-14T13:38:33;26.15;;;17.02;;
46463;SDS011;32161;48.148;-1.554;2023-02-14T13:41:06;28.75;;;17.10;;
46463;SDS011;32161;48.148;-1.554;2023-02-14T13:43:45;32.85;;;17.13;;
46463;SDS011;32161;48.148;-1.554;2023-02-14T13:46:21;28.17;;;16.17;;
46463;SDS011;32161;48.148;-1.554;2023-02-14T13:49:23;23.98;;;15.52;;
46463;SDS011;32161;48.148;-1.554;2023-02-14T13:51:55;27.15;;;15.10;;
46463;SDS011;32161;48.148;-1.554;2023-02-14T13:54:29;23.13;;;15.18;;
46463;SDS011;32161;48.148;-1.554;2023-02-14T13:57:24;22.20;;;14.80;;
46463;SDS011;32161;48.148;-1.554;2023-02-14T14:03:03;23.23;;;15.02;;
46463;SDS011;32161;48.148;-1.554;2023-02-14T14:05:48;25.67;;;14.65;;
46463;SDS011;32161;48.148;-1.554;2023-02-14T14:08:34;25.73;;;13.95;;
46463;SDS011;32161;48.148;-1.554;2023-02-14T14:14:26;22.77;;;11.98;;
46463;SDS011;32161;48.148;-1.554;2023-02-14T14:19:53;19.85;;;12.65;;
46463;SDS011;32161;48.148;-1.554;2023-02-14T14:22:23;16.25;;;12.05;;
46463;SDS011;32161;48.148;-1.554;2023-02-14T14:24:56;18.05;;;11.95;;
46463;SDS011;32161;48.148;-1.554;2023-02-14T14:27:28;18.52;;;11.18;;
46463;SDS011;32161;48.148;-1.554;2023-02-14T14:30:00;17.08;;;10.68;;
46463;SDS011;32161;48.148;-1.554;2023-02-14T14:35:00;18.48;;;12.07;;
46463;SDS011;32161;48.148;-1.554;2023-02-14T14:37:34;18.40;;;12.07;;
46463;SDS011;32161;48.148;-1.554;2023-02-14T14:40:17;16.40;;;12.48;;
46463;SDS011;32161;48.148;-1.554;2023-02-14T14:42:50;20.38;;;12.70;;
46463;SDS011;32161;48.148;-1.554;2023-02-14T14:45:20;18.10;;;12.68;;
46463;SDS011;32161;48.148;-1.554;2023-02-14T14:47:51;16.60;;;12.43;;
46463;SDS011;32161;48.148;-1.554;2023-02-14T14:50:22;17.27;;;13.23;;
46463;SDS011;32161;48.148;-1.554;2023-02-14T14:52:55;23.08;;;12.23;;
46463;SDS011;32161;48.148;-1.554;2023-02-14T14:55:28;21.33;;;13.48;;
46463;SDS011;32161;48.148;-1.554;2023-02-14T14:57:59;21.80;;;11.50;;
46463;SDS011;32161;48.148;-1.554;2023-02-14T15:00:29;16.92;;;11.70;;
46463;SDS011;32161;48.148;-1.554;2023-02-14T15:03:00;19.50;;;12.07;;
46463;SDS011;32161;48.148;-1.554;2023-02-14T15:05:33;19.85;;;12.43;;
46463;SDS011;32161;48.148;-1.554;2023-02-14T15:08:18;17.95;;;11.88;;
46463;SDS011;32161;48.148;-1.554;2023-02-14T15:10:48;23.02;;;13.52;;